createdAt,value
2019-03-15T00:00:03.177Z,1007.2
2019-03-15T00:01:03.200Z,1007.1
2019-03-15T00:02:03.760Z,1007.2
2019-03-15T00:03:03.995Z,1007.4
2019-03-15T00:04:03.907Z,1007.2
2019-03-15T00:05:03.928Z,1007.2
2019-03-15T00:06:03.825Z,1007.5
2019-03-15T00:07:04.150Z,1007.4
2019-03-15T00:08:03.766Z,1007.4
2019-03-15T00:09:03.509Z,1007.5
2019-03-15T00:10:03.757Z,1007.5
2019-03-15T00:11:04.719Z,1007.4
2019-03-15T00:12:03.084Z,1007.5
2019-03-15T00:13:03.441Z,1007.5
2019-03-15T00:14:03.898Z,1007.6
2019-03-15T00:15:03.577Z,1007.5
2019-03-15T00:16:03.829Z,1007.5
2019-03-15T00:17:03.689Z,1007.7
2019-03-15T00:18:03.911Z,1007.6
2019-03-15T00:19:03.889Z,1007.6
2019-03-15T00:20:03.702Z,1007.5
2019-03-15T00:21:03.709Z,1007.7
2019-03-15T00:22:03.651Z,1007.7
2019-03-15T00:23:03.704Z,1007.6
2019-03-15T00:24:03.604Z,1007.7
2019-03-15T00:25:03.611Z,1007.7
2019-03-15T00:26:03.289Z,1007.7
2019-03-15T00:27:03.609Z,1007.7
2019-03-15T00:28:03.393Z,1007.7
2019-03-15T00:29:03.190Z,1007.8
2019-03-15T00:30:03.238Z,1007.7
2019-03-15T00:31:03.391Z,1007.7
2019-03-15T00:32:02.992Z,1007.8
2019-03-15T00:33:03.127Z,1007.7
2019-03-15T00:34:03.058Z,1007.7
2019-03-15T00:35:03.308Z,1007.8
2019-03-15T00:36:03.065Z,1007.7
2019-03-15T00:37:03.823Z,1007.8
2019-03-15T00:38:03.257Z,1007.9
2019-03-15T00:39:03.364Z,1008
2019-03-15T00:40:03.135Z,1007.9
2019-03-15T00:41:03.105Z,1008
2019-03-15T00:42:03.018Z,1007.9
2019-03-15T00:43:03.208Z,1008
2019-03-15T00:44:03.336Z,1007.9
2019-03-15T00:45:03.228Z,1007.9
2019-03-15T00:46:02.716Z,1008
2019-03-15T00:47:03.231Z,1008
2019-03-15T00:48:03.184Z,1007.9
2019-03-15T00:49:03.618Z,1008
2019-03-15T00:50:02.897Z,1008
2019-03-15T00:51:03.832Z,1008.1
2019-03-15T00:52:03.727Z,1007.9
2019-03-15T00:53:04.211Z,1007.9
2019-03-15T00:54:03.726Z,1008
2019-03-15T00:55:03.868Z,1008
2019-03-15T00:56:02.980Z,1007.8
2019-03-15T00:57:03.626Z,1008
2019-03-15T00:58:03.608Z,1007.9
2019-03-15T00:59:03.964Z,1007.9
2019-03-15T01:00:04.023Z,1007.8
2019-03-15T01:01:03.798Z,1007.9
2019-03-15T01:02:03.436Z,1007.9
2019-03-15T01:03:03.497Z,1008
2019-03-15T01:04:03.622Z,1007.9
2019-03-15T01:05:03.980Z,1008
2019-03-15T01:06:03.209Z,1007.9
2019-03-15T01:07:03.404Z,1008
2019-03-15T01:08:03.709Z,1007.9
2019-03-15T01:09:03.453Z,1008
2019-03-15T01:10:03.574Z,1007.9
2019-03-15T01:11:03.702Z,1008.1
2019-03-15T01:12:03.762Z,1008
2019-03-15T01:13:03.644Z,1008.1
2019-03-15T01:14:03.294Z,1008.1
2019-03-15T01:15:03.213Z,1008
2019-03-15T01:16:03.595Z,1008
2019-03-15T01:17:03.178Z,1008
2019-03-15T01:18:03.337Z,1008.1
2019-03-15T01:19:03.217Z,1008.1
2019-03-15T01:20:03.307Z,1008.1
2019-03-15T01:21:03.175Z,1008.1
2019-03-15T01:22:03.338Z,1008.3
2019-03-15T01:23:03.228Z,1008.3
2019-03-15T01:24:03.231Z,1008.3
2019-03-15T01:25:03.166Z,1008.2
2019-03-15T01:26:03.008Z,1008.2
2019-03-15T01:27:03.229Z,1008.2
2019-03-15T01:28:03.102Z,1008.3
2019-03-15T01:29:03.081Z,1008.2
2019-03-15T01:30:03.023Z,1008.2
2019-03-15T01:31:03.108Z,1008.2
2019-03-15T01:32:03.037Z,1008.2
2019-03-15T01:33:03.594Z,1008.3
2019-03-15T01:34:03.942Z,1008.3
2019-03-15T01:35:04.117Z,1008.4
2019-03-15T01:36:03.930Z,1008.4
2019-03-15T01:37:03.671Z,1008.4
2019-03-15T01:38:03.798Z,1008.3
2019-03-15T01:39:03.783Z,1008.4
2019-03-15T01:40:03.610Z,1008.4
2019-03-15T01:41:04.695Z,1008.5
2019-03-15T01:42:03.425Z,1008.5
2019-03-15T01:43:03.942Z,1008.5
2019-03-15T01:44:04.078Z,1008.5
2019-03-15T01:45:03.282Z,1008.4
2019-03-15T01:46:03.649Z,1008.4
2019-03-15T01:47:03.633Z,1008.4
2019-03-15T01:48:03.443Z,1008.5
2019-03-15T01:49:03.402Z,1008.5
2019-03-15T01:50:03.435Z,1008.5
2019-03-15T01:51:03.464Z,1008.5
2019-03-15T01:52:01.927Z,1008.3
2019-03-15T01:53:03.347Z,1008.5
2019-03-15T01:54:03.200Z,1008.6
2019-03-15T01:55:03.269Z,1008.4
2019-03-15T01:56:03.322Z,1008.4
2019-03-15T01:57:03.275Z,1008.4
2019-03-15T01:58:03.368Z,1008.4
2019-03-15T01:59:02.988Z,1008.4
2019-03-15T02:00:02.854Z,1008.4
2019-03-15T02:01:05.039Z,1008.4
2019-03-15T02:02:03.086Z,1008.4
2019-03-15T02:03:03.697Z,1008.5
2019-03-15T02:04:03.003Z,1008.3
2019-03-15T02:05:03.929Z,1008.4
2019-03-15T02:06:02.978Z,1008.4
2019-03-15T02:07:04.004Z,1008.5
2019-03-15T02:08:03.969Z,1008.4
2019-03-15T02:09:03.622Z,1008.4
2019-03-15T02:10:03.950Z,1008.5
2019-03-15T02:11:04.160Z,1008.4
2019-03-15T02:12:03.647Z,1008.5
2019-03-15T02:13:03.739Z,1008.4
2019-03-15T02:14:03.766Z,1008.4
2019-03-15T02:15:03.897Z,1008.5
2019-03-15T02:16:03.454Z,1008.5
2019-03-15T02:17:03.723Z,1008.5
2019-03-15T02:18:03.762Z,1008.6
2019-03-15T02:19:03.780Z,1008.5
2019-03-15T02:20:03.558Z,1008.6
2019-03-15T02:21:03.563Z,1008.6
2019-03-15T02:22:03.644Z,1008.6
2019-03-15T02:23:03.317Z,1008.7
2019-03-15T02:24:03.707Z,1008.7
2019-03-15T02:25:03.711Z,1008.7
2019-03-15T02:26:03.800Z,1008.7
2019-03-15T02:27:03.431Z,1008.6
2019-03-15T02:28:03.708Z,1008.6
2019-03-15T02:29:03.362Z,1008.7
2019-03-15T02:30:03.577Z,1008.7
2019-03-15T02:31:03.354Z,1008.7
2019-03-15T02:32:03.368Z,1008.6
2019-03-15T02:33:03.299Z,1008.6
2019-03-15T02:34:03.300Z,1008.7
2019-03-15T02:35:03.569Z,1008.7
2019-03-15T02:36:03.131Z,1008.7
2019-03-15T02:37:03.301Z,1008.7
2019-03-15T02:38:03.228Z,1008.9
2019-03-15T02:39:03.496Z,1008.8
2019-03-15T02:40:02.880Z,1008.8
2019-03-15T02:41:05.487Z,1008.8
2019-03-15T02:42:03.217Z,1008.8
2019-03-15T02:43:02.929Z,1008.7
2019-03-15T02:44:03.094Z,1008.8
2019-03-15T02:45:03.396Z,1008.9
2019-03-15T02:46:03.226Z,1008.9
2019-03-15T02:47:03.938Z,1008.9
2019-03-15T02:48:03.246Z,1009
2019-03-15T02:49:03.879Z,1008.9
2019-03-15T02:50:03.096Z,1009
2019-03-15T02:51:03.127Z,1009
2019-03-15T02:52:03.941Z,1008.9
2019-03-15T02:53:03.854Z,1009.1
2019-03-15T02:54:03.780Z,1008.9
2019-03-15T02:55:03.984Z,1008.9
2019-03-15T02:56:04.141Z,1009.1
2019-03-15T02:57:03.872Z,1009.1
2019-03-15T02:58:03.352Z,1009.3
2019-03-15T02:59:03.897Z,1009.3
2019-03-15T03:00:03.800Z,1009.3
2019-03-15T03:01:03.936Z,1009.4
2019-03-15T03:02:03.996Z,1009.5
2019-03-15T03:03:03.810Z,1009.6
2019-03-15T03:04:03.805Z,1009.6
2019-03-15T03:05:03.626Z,1009.7
2019-03-15T03:06:03.926Z,1009.7
2019-03-15T03:07:03.875Z,1009.6
2019-03-15T03:08:03.787Z,1009.7
2019-03-15T03:09:03.934Z,1009.8
2019-03-15T03:10:03.666Z,1009.8
2019-03-15T03:11:03.276Z,1009.8
2019-03-15T03:12:03.631Z,1009.8
2019-03-15T03:13:03.309Z,1009.8
2019-03-15T03:14:04.929Z,1009.8
2019-03-15T03:15:03.386Z,1009.6
2019-03-15T03:16:03.071Z,1009.6
2019-03-15T03:17:03.470Z,1009.6
2019-03-15T03:18:03.102Z,1009.6
2019-03-15T03:19:03.278Z,1009.6
2019-03-15T03:20:03.539Z,1009.6
2019-03-15T03:21:03.168Z,1009.6
2019-03-15T03:22:03.394Z,1009.6
2019-03-15T03:23:04.535Z,1009.7
2019-03-15T03:24:03.867Z,1009.7
2019-03-15T03:25:03.341Z,1009.7
2019-03-15T03:26:03.994Z,1009.8
2019-03-15T03:27:02.942Z,1009.9
2019-03-15T03:28:02.798Z,1009.9
2019-03-15T03:29:03.961Z,1009.8
2019-03-15T03:30:03.268Z,1010
2019-03-15T03:31:03.936Z,1010
2019-03-15T03:32:03.328Z,1009.8
2019-03-15T03:33:03.559Z,1009.8
2019-03-15T03:34:03.276Z,1009.9
2019-03-15T03:35:03.406Z,1009.8
2019-03-15T03:36:03.845Z,1009.9
2019-03-15T03:37:03.826Z,1009.7
2019-03-15T03:38:03.899Z,1009.4
2019-03-15T03:39:03.728Z,1009.5
2019-03-15T03:40:03.759Z,1009.5
2019-03-15T03:41:03.515Z,1009.4
2019-03-15T03:42:03.743Z,1009.6
2019-03-15T03:43:03.803Z,1009.5
2019-03-15T03:44:03.706Z,1009.6
2019-03-15T03:45:03.769Z,1009.7
2019-03-15T03:46:03.647Z,1009.7
2019-03-15T03:47:03.733Z,1009.9
2019-03-15T03:48:03.879Z,1009.9
2019-03-15T03:49:03.683Z,1009.9
2019-03-15T03:50:03.637Z,1009.9
2019-03-15T03:51:03.565Z,1009.9
2019-03-15T03:52:03.461Z,1010
2019-03-15T03:53:03.246Z,1010
2019-03-15T03:54:04.727Z,1010.1
2019-03-15T03:55:03.716Z,1010.1
2019-03-15T03:56:03.364Z,1010.1
2019-03-15T03:57:03.662Z,1010.1
2019-03-15T03:58:03.346Z,1010.1
2019-03-15T03:59:03.588Z,1009.9
2019-03-15T04:00:03.344Z,1010
2019-03-15T04:01:03.655Z,1010
2019-03-15T04:02:03.119Z,1010
2019-03-15T04:03:02.923Z,1010.1
2019-03-15T04:04:03.162Z,1010.1
2019-03-15T04:05:03.019Z,1010.2
2019-03-15T04:06:03.219Z,1010.2
2019-03-15T04:07:03.170Z,1010.2
2019-03-15T04:08:02.921Z,1010.3
2019-03-15T04:09:03.930Z,1010.3
2019-03-15T04:10:06.560Z,1010.3
2019-03-15T04:11:04.061Z,1010.3
2019-03-15T04:12:03.885Z,1010.2
2019-03-15T04:13:03.625Z,1010.3
2019-03-15T04:14:04.015Z,1010.3
2019-03-15T04:15:03.981Z,1010.3
2019-03-15T04:16:03.792Z,1010.5
2019-03-15T04:17:03.664Z,1010.5
2019-03-15T04:18:07.101Z,1010.3
2019-03-15T04:19:03.647Z,1010.3
2019-03-15T04:20:03.664Z,1010.3
2019-03-15T04:21:03.958Z,1010.3
2019-03-15T04:22:03.457Z,1010.3
2019-03-15T04:23:03.923Z,1010.3
2019-03-15T04:24:03.468Z,1010.3
2019-03-15T04:25:07.661Z,1010.3
2019-03-15T04:26:03.463Z,1010.3
2019-03-15T04:27:03.793Z,1010.5
2019-03-15T04:28:03.679Z,1010.5
2019-03-15T04:29:03.557Z,1010.5
2019-03-15T04:30:03.543Z,1010.5
2019-03-15T04:31:03.186Z,1010.3
2019-03-15T04:32:03.518Z,1010.3
2019-03-15T04:33:03.261Z,1010.3
2019-03-15T04:34:03.461Z,1010.3
2019-03-15T04:35:03.396Z,1010.3
2019-03-15T04:36:03.437Z,1010.4
2019-03-15T04:37:03.298Z,1010.4
2019-03-15T04:38:03.338Z,1010.5
2019-03-15T04:39:03.144Z,1010.4
2019-03-15T04:40:03.259Z,1010.4
2019-03-15T04:41:03.008Z,1010.4
2019-03-15T04:42:03.929Z,1010.5
2019-03-15T04:43:03.040Z,1010.6
2019-03-15T04:44:03.834Z,1010.6
2019-03-15T04:45:03.343Z,1010.6
2019-03-15T04:46:03.904Z,1010.6
2019-03-15T04:47:03.201Z,1010.6
2019-03-15T04:48:03.109Z,1010.5
2019-03-15T04:49:03.010Z,1010.5
2019-03-15T04:50:03.874Z,1010.6
2019-03-15T04:51:02.978Z,1010.5
2019-03-15T04:52:04.017Z,1010.5
2019-03-15T04:53:03.980Z,1010.6
2019-03-15T04:54:06.358Z,1010.6
2019-03-15T04:55:03.848Z,1010.6
2019-03-15T04:56:03.912Z,1010.6
2019-03-15T04:57:03.789Z,1010.6
2019-03-15T04:58:03.805Z,1010.7
2019-03-15T04:59:03.720Z,1010.6
2019-03-15T05:00:03.920Z,1010.6
2019-03-15T05:01:03.655Z,1010.7
2019-03-15T05:02:04.425Z,1010.7
2019-03-15T05:03:03.501Z,1010.8
2019-03-15T05:04:03.426Z,1010.7
2019-03-15T05:05:03.627Z,1010.7
2019-03-15T05:06:04.514Z,1010.7
2019-03-15T05:07:03.973Z,1010.8
2019-03-15T05:08:03.557Z,1010.8
2019-03-15T05:09:03.756Z,1010.8
2019-03-15T05:10:03.481Z,1010.7
2019-03-15T05:11:03.542Z,1010.7
2019-03-15T05:12:03.409Z,1010.7
2019-03-15T05:13:03.823Z,1010.8
2019-03-15T05:14:03.880Z,1010.6
2019-03-15T05:15:03.829Z,1010.6
2019-03-15T05:16:03.558Z,1010.6
2019-03-15T05:17:03.588Z,1010.8
2019-03-15T05:18:03.769Z,1010.6
2019-03-15T05:19:03.279Z,1010.6
2019-03-15T05:20:03.797Z,1010.6
2019-03-15T05:21:03.210Z,1010.6
2019-03-15T05:22:03.150Z,1010.6
2019-03-15T05:23:03.179Z,1010.6
2019-03-15T05:24:03.663Z,1010.5
2019-03-15T05:25:03.446Z,1010.5
2019-03-15T05:26:03.304Z,1010.5
2019-03-15T05:27:03.369Z,1010.5
2019-03-15T05:28:03.230Z,1010.5
2019-03-15T05:29:02.893Z,1010.5
2019-03-15T05:30:03.199Z,1010.5
2019-03-15T05:31:03.048Z,1010.5
2019-03-15T05:32:03.314Z,1010.5
2019-03-15T05:33:04.026Z,1010.5
2019-03-15T05:34:03.064Z,1010.5
2019-03-15T05:35:03.088Z,1010.5
2019-03-15T05:36:03.957Z,1010.5
2019-03-15T05:37:02.967Z,1010.5
2019-03-15T05:38:03.784Z,1010.5
2019-03-15T05:39:03.873Z,1010.5
2019-03-15T05:40:03.560Z,1010.5
2019-03-15T05:41:03.733Z,1010.5
2019-03-15T05:42:03.666Z,1010.5
2019-03-15T05:43:03.588Z,1010.5
2019-03-15T05:44:03.838Z,1010.5
2019-03-15T05:45:03.926Z,1010.5
2019-03-15T05:46:03.550Z,1010.5
2019-03-15T05:47:03.635Z,1010.5
2019-03-15T05:48:03.432Z,1010.5
2019-03-15T05:49:03.543Z,1010.5
2019-03-15T05:50:03.563Z,1010.5
2019-03-15T05:51:03.609Z,1010.5
2019-03-15T05:52:03.753Z,1010.5
2019-03-15T05:53:03.502Z,1010.5
2019-03-15T05:54:03.251Z,1010.5
2019-03-15T05:55:03.881Z,1010.5
2019-03-15T05:56:03.561Z,1010.5
2019-03-15T05:57:03.448Z,1010.5
2019-03-15T05:58:03.299Z,1010.5
2019-03-15T05:59:03.329Z,1010.6
2019-03-15T06:00:03.577Z,1010.6
2019-03-15T06:01:02.973Z,1010.6
2019-03-15T06:02:03.603Z,1010.7
2019-03-15T06:03:03.324Z,1010.7
2019-03-15T06:04:03.286Z,1010.8
2019-03-15T06:05:03.729Z,1010.7
2019-03-15T06:06:03.263Z,1010.7
2019-03-15T06:07:03.270Z,1010.7
2019-03-15T06:08:03.362Z,1010.8
2019-03-15T06:09:02.970Z,1010.8
2019-03-15T06:10:02.105Z,1010.8
2019-03-15T06:11:02.873Z,1010.8
2019-03-15T06:12:03.205Z,1010.8
2019-03-15T06:13:03.045Z,1010.8
2019-03-15T06:14:03.991Z,1010.8
2019-03-15T06:15:03.204Z,1010.8
2019-03-15T06:16:03.041Z,1010.8
2019-03-15T06:17:03.198Z,1010.8
2019-03-15T06:18:02.979Z,1010.8
2019-03-15T06:19:03.950Z,1010.8
2019-03-15T06:20:06.892Z,1010.8
2019-03-15T06:21:02.498Z,1010.8
2019-03-15T06:22:03.726Z,1010.8
2019-03-15T06:23:03.490Z,1010.8
2019-03-15T06:24:03.722Z,1010.8
2019-03-15T06:25:03.766Z,1010.8
2019-03-15T06:26:03.539Z,1010.8
2019-03-15T06:27:03.680Z,1010.8
2019-03-15T06:28:03.724Z,1010.8
2019-03-15T06:29:03.487Z,1010.8
2019-03-15T06:30:03.970Z,1010.8
2019-03-15T06:31:03.411Z,1010.8
2019-03-15T06:32:03.181Z,1010.8
2019-03-15T06:33:02.907Z,1010.7
2019-03-15T06:34:03.555Z,1010.8
2019-03-15T06:35:03.584Z,1010.7
2019-03-15T06:36:03.198Z,1010.7
2019-03-15T06:37:03.600Z,1010.8
2019-03-15T06:38:03.371Z,1010.8
2019-03-15T06:39:03.104Z,1010.8
2019-03-15T06:40:03.424Z,1010.8
2019-03-15T06:41:03.055Z,1010.8
2019-03-15T06:42:03.437Z,1010.8
2019-03-15T06:43:03.218Z,1010.8
2019-03-15T06:44:03.109Z,1010.7
2019-03-15T06:45:03.256Z,1010.8
2019-03-15T06:46:03.208Z,1010.7
2019-03-15T06:47:03.357Z,1010.7
2019-03-15T06:48:03.282Z,1010.7
2019-03-15T06:49:03.238Z,1010.7
2019-03-15T06:50:03.418Z,1010.5
2019-03-15T06:51:03.176Z,1010.5
2019-03-15T06:52:03.528Z,1010.4
2019-03-15T06:53:03.405Z,1010.4
2019-03-15T06:54:12.406Z,1010.5
2019-03-15T06:55:05.944Z,1010.5
2019-03-15T06:56:03.279Z,1010.5
2019-03-15T06:57:03.065Z,1010.5
2019-03-15T06:58:03.641Z,1010.4
2019-03-15T06:59:03.282Z,1010.4
2019-03-15T07:00:04.472Z,1010.4
2019-03-15T07:01:03.339Z,1010.4
2019-03-15T07:02:02.950Z,1010.4
2019-03-15T07:03:02.939Z,1010.3
2019-03-15T07:04:03.562Z,1010.4
2019-03-15T07:05:03.416Z,1010.4
2019-03-15T07:06:03.723Z,1010.4
2019-03-15T07:07:03.835Z,1010.4
2019-03-15T07:08:03.695Z,1010.5
2019-03-15T07:09:03.158Z,1010.4
2019-03-15T07:10:03.994Z,1010.4
2019-03-15T07:11:02.953Z,1010.4
2019-03-15T07:12:11.967Z,1010.4
2019-03-15T07:13:03.810Z,1010.4
2019-03-15T07:14:03.760Z,1010.4
2019-03-15T07:15:03.780Z,1010.4
2019-03-15T07:16:03.553Z,1010.4
2019-03-15T07:17:03.710Z,1010.6
2019-03-15T07:18:03.482Z,1010.6
2019-03-15T07:19:03.672Z,1010.6
2019-03-15T07:20:03.733Z,1010.6
2019-03-15T07:21:03.533Z,1010.6
2019-03-15T07:22:03.367Z,1010.7
2019-03-15T07:23:03.434Z,1010.7
2019-03-15T07:24:02.908Z,1010.7
2019-03-15T07:25:03.020Z,1010.7
2019-03-15T07:26:03.076Z,1010.7
2019-03-15T07:27:14.117Z,1010.6
2019-03-15T07:28:03.003Z,1010.7
2019-03-15T07:29:03.225Z,1010.6
2019-03-15T07:30:03.218Z,1010.6
2019-03-15T07:31:03.059Z,1010.6
2019-03-15T07:32:03.150Z,1010.6
2019-03-15T07:33:02.884Z,1010.6
2019-03-15T07:34:03.122Z,1010.7
2019-03-15T07:35:03.949Z,1010.7
2019-03-15T07:36:03.633Z,1010.7
2019-03-15T07:37:03.525Z,1010.7
2019-03-15T07:38:03.013Z,1010.7
2019-03-15T07:39:03.905Z,1010.6
2019-03-15T07:40:03.792Z,1010.6
2019-03-15T07:41:03.638Z,1010.6
2019-03-15T07:42:03.208Z,1010.7
2019-03-15T07:43:05.838Z,1010.6
2019-03-15T07:44:04.052Z,1010.6
2019-03-15T07:45:03.726Z,1010.6
2019-03-15T07:46:04.010Z,1010.6
2019-03-15T07:47:03.693Z,1010.6
2019-03-15T07:48:03.450Z,1010.6
2019-03-15T07:49:03.825Z,1010.6
2019-03-15T07:50:03.489Z,1010.5
2019-03-15T07:51:03.127Z,1010.5
2019-03-15T07:52:04.493Z,1010.6
2019-03-15T07:53:03.493Z,1010.6
2019-03-15T07:54:03.350Z,1010.6
2019-03-15T07:55:03.266Z,1010.6
2019-03-15T07:56:03.230Z,1010.5
2019-03-15T07:57:03.886Z,1010.6
2019-03-15T07:58:03.164Z,1010.5
2019-03-15T07:59:03.070Z,1010.4
2019-03-15T08:00:03.417Z,1010.5
2019-03-15T08:01:03.432Z,1010.5
2019-03-15T08:02:03.105Z,1010.5
2019-03-15T08:03:03.182Z,1010.6
2019-03-15T08:04:18.076Z,1010.6
2019-03-15T08:05:03.236Z,1010.6
2019-03-15T08:06:03.203Z,1010.6
2019-03-15T08:07:03.077Z,1010.6
2019-03-15T08:08:03.444Z,1010.5
2019-03-15T08:09:02.918Z,1010.6
2019-03-15T08:10:03.072Z,1010.6
2019-03-15T08:11:03.882Z,1010.6
2019-03-15T08:12:03.102Z,1010.6
2019-03-15T08:13:03.757Z,1010.6
2019-03-15T08:14:03.762Z,1010.6
2019-03-15T08:15:03.123Z,1010.5
2019-03-15T08:16:03.672Z,1010.6
2019-03-15T08:17:03.798Z,1010.7
2019-03-15T08:18:03.459Z,1010.6
2019-03-15T08:19:05.741Z,1010.6
2019-03-15T08:20:03.940Z,1010.6
2019-03-15T08:21:02.644Z,1010.6
2019-03-15T08:22:03.758Z,1010.6
2019-03-15T08:23:03.702Z,1010.6
2019-03-15T08:24:03.884Z,1010.6
2019-03-15T08:25:03.840Z,1010.6
2019-03-15T08:26:03.431Z,1010.5
2019-03-15T08:27:03.868Z,1010.5
2019-03-15T08:28:03.879Z,1010.5
2019-03-15T08:29:03.928Z,1010.5
2019-03-15T08:30:03.275Z,1010.5
2019-03-15T08:31:03.113Z,1010.5
2019-03-15T08:32:03.747Z,1010.4
2019-03-15T08:33:11.753Z,1010.5
2019-03-15T08:34:03.531Z,1010.4
2019-03-15T08:35:04.719Z,1010.4
2019-03-15T08:36:03.534Z,1010.4
2019-03-15T08:37:03.286Z,1010.4
2019-03-15T08:38:05.867Z,1010.3
2019-03-15T08:39:03.764Z,1010.2
2019-03-15T08:40:03.964Z,1010.3
2019-03-15T08:41:03.820Z,1010.4
2019-03-15T08:42:03.595Z,1010.4
2019-03-15T08:43:03.423Z,1010.4
2019-03-15T08:44:03.278Z,1010.3
2019-03-15T08:45:02.434Z,1010.5
2019-03-15T08:46:03.725Z,1010.3
2019-03-15T08:47:03.169Z,1010.4
2019-03-15T08:48:03.543Z,1010.3
2019-03-15T08:49:03.132Z,1010.3
2019-03-15T08:50:03.311Z,1010.4
2019-03-15T08:51:03.395Z,1010.3
2019-03-15T08:52:04.640Z,1010.3
2019-03-15T08:53:03.258Z,1010.4
2019-03-15T08:54:03.165Z,1010.4
2019-03-15T08:55:06.361Z,1010.4
2019-03-15T08:56:03.209Z,1010.4
2019-03-15T08:57:03.239Z,1010.5
2019-03-15T08:58:22.979Z,1010.4
2019-03-15T08:59:03.923Z,1010.5
2019-03-15T09:00:03.925Z,1010.5
2019-03-15T09:01:03.694Z,1010.5
2019-03-15T09:02:03.852Z,1010.5
2019-03-15T09:03:02.726Z,1010.4
2019-03-15T09:04:03.062Z,1010.4
2019-03-15T09:05:03.198Z,1010.3
2019-03-15T09:06:03.935Z,1010.3
2019-03-15T09:07:03.707Z,1010.3
2019-03-15T09:08:03.923Z,1010.4
2019-03-15T09:09:03.659Z,1010.4
2019-03-15T09:10:04.211Z,1010.3
2019-03-15T09:11:03.708Z,1010.3
2019-03-15T09:12:03.561Z,1010.3
2019-03-15T09:13:03.473Z,1010.3
2019-03-15T09:14:03.966Z,1010.4
2019-03-15T09:15:03.809Z,1010.4
2019-03-15T09:16:03.592Z,1010.3
2019-03-15T09:17:03.479Z,1010.4
2019-03-15T09:18:03.632Z,1010.3
2019-03-15T09:19:03.608Z,1010.3
2019-03-15T09:20:03.708Z,1010.4
2019-03-15T09:21:01.819Z,1010.3
2019-03-15T09:22:03.512Z,1010.3
2019-03-15T09:23:03.702Z,1010.4
2019-03-15T09:24:03.462Z,1010.3
2019-03-15T09:25:03.203Z,1010.3
2019-03-15T09:26:03.792Z,1010.3
2019-03-15T09:27:03.442Z,1010.4
2019-03-15T09:28:03.420Z,1010.4
2019-03-15T09:29:03.779Z,1010.1
2019-03-15T09:30:03.295Z,1010.2
2019-03-15T09:31:03.167Z,1010.1
2019-03-15T09:32:09.902Z,1010.1
2019-03-15T09:33:03.863Z,1010.1
2019-03-15T09:34:03.536Z,1010.2
2019-03-15T09:35:03.321Z,1010.3
2019-03-15T09:36:03.593Z,1010.2
2019-03-15T09:37:03.248Z,1010
2019-03-15T09:38:03.191Z,1010.1
2019-03-15T09:39:03.419Z,1010.1
2019-03-15T09:40:03.239Z,1010.1
2019-03-15T09:41:03.218Z,1010
2019-03-15T09:42:03.792Z,1010.1
2019-03-15T09:43:03.012Z,1010.1
2019-03-15T09:44:03.239Z,1010.1
2019-03-15T09:45:02.984Z,1010.1
2019-03-15T09:46:02.917Z,1010.1
2019-03-15T09:47:04.147Z,1010.1
2019-03-15T09:48:03.813Z,1010.1
2019-03-15T09:49:04.093Z,1009.9
2019-03-15T09:50:03.591Z,1010
2019-03-15T09:51:03.659Z,1010.1
2019-03-15T09:52:03.681Z,1010
2019-03-15T09:53:06.741Z,1010
2019-03-15T09:54:03.527Z,1010
2019-03-15T09:55:03.628Z,1010
2019-03-15T09:56:03.502Z,1010.1
2019-03-15T09:57:03.533Z,1010.1
2019-03-15T09:58:03.569Z,1010.2
2019-03-15T09:59:03.442Z,1010.2
2019-03-15T10:00:03.587Z,1010.1
2019-03-15T10:01:07.682Z,1010.1
2019-03-15T10:02:03.374Z,1010.1
2019-03-15T10:03:03.211Z,1009.9
2019-03-15T10:04:03.418Z,1010.2
2019-03-15T10:05:12.127Z,1010.1
2019-03-15T10:06:20.086Z,1010.1
2019-03-15T10:07:03.168Z,1010.2
2019-03-15T10:08:03.048Z,1009.9
2019-03-15T10:09:04.001Z,1010
2019-03-15T10:10:19.606Z,1010.1
2019-03-15T10:11:03.774Z,1010.1
2019-03-15T10:12:04.056Z,1010.1
2019-03-15T10:13:06.896Z,1009.9
2019-03-15T10:14:03.858Z,1010.1
2019-03-15T10:15:03.825Z,1010.2
2019-03-15T10:16:03.732Z,1010.1
2019-03-15T10:17:03.943Z,1010
2019-03-15T10:18:03.881Z,1010.1
2019-03-15T10:19:03.891Z,1010.2
2019-03-15T10:20:03.689Z,1010.1
2019-03-15T10:21:03.856Z,1010.2
2019-03-15T10:22:03.696Z,1010.2
2019-03-15T10:23:07.001Z,1010.1
2019-03-15T10:24:03.057Z,1010.1
2019-03-15T10:25:03.711Z,1010.1
2019-03-15T10:26:03.232Z,1010.1
2019-03-15T10:27:03.888Z,1010.1
2019-03-15T10:28:02.741Z,1010.1
2019-03-15T10:29:20.109Z,1010
2019-03-15T10:30:03.698Z,1010
2019-03-15T10:31:03.691Z,1010
2019-03-15T10:32:03.804Z,1009.9
2019-03-15T10:33:03.393Z,1010
2019-03-15T10:34:06.316Z,1010
2019-03-15T10:35:03.713Z,1010
2019-03-15T10:36:03.537Z,1010
2019-03-15T10:37:06.862Z,1010.1
2019-03-15T10:38:03.477Z,1010
2019-03-15T10:39:03.356Z,1010
2019-03-15T10:40:02.960Z,1010
2019-03-15T10:41:03.338Z,1010
2019-03-15T10:42:03.177Z,1010
2019-03-15T10:43:03.224Z,1009.9
2019-03-15T10:44:04.725Z,1010
2019-03-15T10:45:03.218Z,1010
2019-03-15T10:46:06.863Z,1010.1
2019-03-15T10:47:03.761Z,1010
2019-03-15T10:48:03.061Z,1010.1
2019-03-15T10:49:03.820Z,1010
2019-03-15T10:50:03.898Z,1010
2019-03-15T10:51:03.759Z,1010.2
2019-03-15T10:52:04.033Z,1010.2
2019-03-15T10:53:03.878Z,1009.9
2019-03-15T10:54:03.701Z,1009.9
2019-03-15T10:55:03.689Z,1010
2019-03-15T10:56:03.526Z,1010.1
2019-03-15T10:57:03.446Z,1010.1
2019-03-15T10:58:03.853Z,1010.1
2019-03-15T10:59:03.683Z,1009.9
2019-03-15T11:00:03.663Z,1010
2019-03-15T11:01:03.586Z,1010.1
2019-03-15T11:02:03.314Z,1010
2019-03-15T11:03:03.465Z,1010.1
2019-03-15T11:04:03.671Z,1010.1
2019-03-15T11:05:03.600Z,1010.1
2019-03-15T11:06:03.310Z,1010.1
2019-03-15T11:07:02.977Z,1010.1
2019-03-15T11:08:03.125Z,1010.1
2019-03-15T11:09:03.203Z,1009.9
2019-03-15T11:10:03.095Z,1010
2019-03-15T11:11:03.175Z,1009.8
2019-03-15T11:12:03.342Z,1009.8
2019-03-15T11:13:02.963Z,1010
2019-03-15T11:14:03.280Z,1010
2019-03-15T11:15:02.935Z,1009.9
2019-03-15T11:16:03.212Z,1009.9
2019-03-15T11:17:03.161Z,1009.9
2019-03-15T11:18:03.778Z,1009.9
2019-03-15T11:19:03.993Z,1010
2019-03-15T11:20:03.686Z,1009.9
2019-03-15T11:21:03.308Z,1009.9
2019-03-15T11:22:03.616Z,1010
2019-03-15T11:23:03.950Z,1009.9
2019-03-15T11:24:03.906Z,1010
2019-03-15T11:25:04.067Z,1010
2019-03-15T11:26:14.545Z,1009.9
2019-03-15T11:27:02.992Z,1009.9
2019-03-15T11:28:04.129Z,1009.9
2019-03-15T11:29:03.809Z,1009.8
2019-03-15T11:30:03.863Z,1009.7
2019-03-15T11:31:03.822Z,1009.7
2019-03-15T11:32:03.615Z,1009.6
2019-03-15T11:33:03.747Z,1009.6
2019-03-15T11:34:03.633Z,1009.6
2019-03-15T11:35:03.590Z,1009.6
2019-03-15T11:36:03.552Z,1009.6
2019-03-15T11:37:04.098Z,1009.5
2019-03-15T11:38:03.742Z,1009.4
2019-03-15T11:39:03.210Z,1009.4
2019-03-15T11:40:04.079Z,1009.3
2019-03-15T11:41:03.453Z,1009.2
2019-03-15T11:42:03.417Z,1009.3
2019-03-15T11:43:03.332Z,1009.3
2019-03-15T11:44:03.261Z,1009.2
2019-03-15T11:45:03.444Z,1009.3
2019-03-15T11:46:03.357Z,1009.3
2019-03-15T11:47:04.197Z,1009.2
2019-03-15T11:48:05.046Z,1009.3
2019-03-15T11:49:03.759Z,1009.2
2019-03-15T11:50:03.726Z,1009.1
2019-03-15T11:51:03.466Z,1009.1
2019-03-15T11:52:03.107Z,1009.3
2019-03-15T11:53:02.953Z,1009.3
2019-03-15T11:54:03.180Z,1009.2
2019-03-15T11:55:03.467Z,1009.3
2019-03-15T11:56:03.400Z,1009.3
2019-03-15T11:57:03.590Z,1009.2
2019-03-15T11:58:03.542Z,1009.3
2019-03-15T11:59:03.378Z,1009.2
2019-03-15T12:00:03.627Z,1009.2
2019-03-15T12:01:03.516Z,1009.2
2019-03-15T12:02:04.919Z,1009.1
2019-03-15T12:03:03.227Z,1009.1
2019-03-15T12:04:03.449Z,1008.9
2019-03-15T12:05:03.282Z,1009
2019-03-15T12:06:03.209Z,1008.9
2019-03-15T12:07:03.060Z,1008.9
2019-03-15T12:08:03.011Z,1008.9
2019-03-15T12:09:03.075Z,1009
2019-03-15T12:10:03.084Z,1008.9
2019-03-15T12:11:03.061Z,1008.8
2019-03-15T12:12:04.187Z,1008.9
2019-03-15T12:13:03.167Z,1008.8
2019-03-15T12:14:03.616Z,1008.8
2019-03-15T12:15:03.338Z,1008.9
2019-03-15T12:16:03.106Z,1008.8
2019-03-15T12:17:03.760Z,1008.8
2019-03-15T12:18:03.544Z,1008.7
2019-03-15T12:19:03.589Z,1008.7
2019-03-15T12:20:03.938Z,1008.7
2019-03-15T12:21:03.753Z,1008.6
2019-03-15T12:22:07.202Z,1008.6
2019-03-15T12:23:03.868Z,1008.6
2019-03-15T12:24:03.159Z,1008.7
2019-03-15T12:25:03.996Z,1008.6
2019-03-15T12:26:02.879Z,1008.6
2019-03-15T12:27:03.829Z,1008.6
2019-03-15T12:28:03.930Z,1008.5
2019-03-15T12:29:03.644Z,1008.6
2019-03-15T12:30:03.733Z,1008.5
2019-03-15T12:31:03.608Z,1008.5
2019-03-15T12:32:03.691Z,1008.5